Time;durP1;ratioP1;P1;durP2;ratioP2;P2;SDS_P1;SDS_P2;PMS_P1;PMS_P2;Temp;Humidity;BMP_temperature;BMP_pressure;BME280_temperature;BME280_humidity;BME280_pressure;Samples;Min_cycle;Max_cycle;Signal;HPM_P1;HPM_P2
2022/09/25 00:00:27;;;;;;;;;;;;;;;;;;5074377;28;20277;-64
2022/09/25 00:02:52;;;;;;;;;;;;;;;;;;5077176;28;20357;-64
2022/09/25 00:05:17;;;;;;;;;;;;;;;;;;5089189;28;19977;-64
2022/09/25 00:07:42;;;;;;;;;;;;;;;;;;5075482;28;19995;-64
2022/09/25 00:10:07;;;;;;;;;;;;;;;;;;5093321;28;20299;-64
2022/09/25 00:12:32;;;;;;;;;;;;;;;;;;5085463;28;20364;-64
2022/09/25 00:14:58;;;;;;;;;;;;;;;;;;5078975;28;19935;-64
2022/09/25 00:17:23;;;;;;;;;;;;;;;;;;5072544;28;19920;-64
2022/09/25 00:19:51;;;;;;;;;;;;;;;;;;5066758;28;19922;-64
2022/09/25 00:22:16;;;;;;;;;;;;;;;;;;5071769;28;19928;-64
2022/09/25 00:24:41;;;;;;;;;;;;;;;;;;5073125;28;19912;-64
2022/09/25 00:27:07;;;;;;;;;;;;;;;;;;5052410;28;19916;-64
2022/09/25 00:29:32;;;;;;;;;;;;;;;;;;5058147;28;19913;-65
2022/09/25 00:31:57;;;;;;;;;;;;;;;;;;5049450;28;20331;-64
2022/09/25 00:34:22;;;;;;;;;;;;;;;;;;5058713;28;19927;-64
2022/09/25 00:36:47;;;;;;;;;;;;;;;;;;5063799;28;21792;-64
2022/09/25 00:39:13;;;;;;;;;;;;;;;;;;5063708;28;19913;-64
2022/09/25 00:41:38;;;;;;;;;;;;;;;;;;5057969;28;19985;-64
2022/09/25 00:44:03;;;;;;;;;;;;;;;;;;5044714;28;20318;-64
2022/09/25 00:46:28;;;;;;;;;;;;;;;;;;5056543;28;19916;-64
2022/09/25 00:48:53;;;;;;;;;;;;;;;;;;5055215;28;19967;-65
2022/09/25 00:51:18;;;;;;;;;;;;;;;;;;5058733;28;20426;-65
2022/09/25 00:53:43;;;;;;;;;;;;;;;;;;5063891;28;19916;-65
2022/09/25 00:56:09;;;;;;;;;;;;;;;;;;5065036;28;19924;-65
2022/09/25 00:58:34;;;;;;;;;;;;;;;;;;5066221;28;19915;-65
2022/09/25 01:00:59;;;;;;;;;;;;;;;;;;5065211;28;20400;-64
2022/09/25 01:03:26;;;;;;;;;;;;;;;;;;5041637;28;20368;-65
2022/09/25 01:05:53;;;;;;;;;;;;;;;;;;5047788;28;20066;-65
2022/09/25 01:08:18;;;;;;;;;;;;;;;;;;5066120;28;19919;-65
2022/09/25 01:10:43;;;;;;;;;;;;;;;;;;5064962;28;20287;-65
2022/09/25 01:13:08;;;;;;;;;;;;;;;;;;5059195;28;19962;-65
2022/09/25 01:15:34;;;;;;;;;;;;;;;;;;5072656;28;20007;-65
2022/09/25 01:17:59;;;;;;;;;;;;;;;;;;5064474;28;19927;-65
2022/09/25 01:20:24;;;;;;;;;;;;;;;;;;5080942;28;19919;-65
2022/09/25 01:22:49;;;;;;;;;;;;;;;;;;5069972;28;19913;-64
2022/09/25 01:25:14;;;;;;;;;;;;;;;;;;5078453;28;19908;-64
2022/09/25 01:27:40;;;;;;;;;;;;;;;;;;5081188;28;19916;-63
2022/09/25 01:30:05;;;;;;;;;;;;;;;;;;5090651;28;19971;-65
2022/09/25 01:32:30;;;;;;;;;;;;;;;;;;5089422;28;19919;-64
2022/09/25 01:34:55;;;;;;;;;;;;;;;;;;5063652;28;19912;-65
2022/09/25 01:37:21;;;;;;;;;;;;;;;;;;5080486;28;20015;-65
2022/09/25 01:39:46;;;;;;;;;;;;;;;;;;5078846;28;19928;-65
2022/09/25 01:42:11;;;;;;;;;;;;;;;;;;5074788;28;19931;-65
2022/09/25 01:44:36;;;;;;;;;;;;;;;;;;5076742;28;20010;-65
2022/09/25 01:47:02;;;;;;;;;;;;;;;;;;5075418;28;19920;-65
2022/09/25 01:49:27;;;;;;;;;;;;;;;;;;5087773;28;20398;-64
2022/09/25 01:51:52;;;;;;;;;;;;;;;;;;5083848;28;19919;-64
2022/09/25 01:54:17;;;;;;;;;;;;;;;;;;5080763;28;19960;-65
2022/09/25 01:56:42;;;;;;;;;;;;;;;;;;5085628;28;19954;-65
2022/09/25 01:59:07;;;;;;;;;;;;;;;;;;5091067;28;19993;-65
2022/09/25 02:01:33;;;;;;;;;;;;;;;;;;5074154;28;20003;-64
2022/09/25 02:03:59;;;;;;;;;;;;;;;;;;5075237;28;19913;-64
2022/09/25 02:06:24;;;;;;;;;;;;;;;;;;5084335;28;19948;-65
2022/09/25 02:08:49;;;;;;;;;;;;;;;;;;5075207;28;20419;-65
2022/09/25 02:11:14;;;;;;;;;;;;;;;;;;5077311;28;19916;-64
2022/09/25 02:13:40;;;;;;;;;;;;;;;;;;5082365;28;19917;-65
2022/09/25 02:16:05;;;;;;;;;;;;;;;;;;5072426;28;19912;-65
2022/09/25 02:21:14;;;;;;;;;;;;;;;;;;5083031;28;20433;-65
2022/09/25 02:23:39;;;;;;;;;;;;;;;;;;5082209;28;19912;-63
2022/09/25 02:26:04;;;;;;;;;;;;;;;;;;5082833;28;19912;-65
2022/09/25 02:28:30;;;;;;;;;;;;;;;;;;5068024;28;19916;-65
2022/09/25 02:30:55;;;;;;;;;;;;;;;;;;5077590;28;19912;-65
2022/09/25 02:33:20;;;;;;;;;;;;;;;;;;5076120;28;19913;-64
2022/09/25 02:35:45;;;;;;;;;;;;;;;;;;5073649;28;20319;-64
2022/09/25 02:38:10;;;;;;;;;;;;;;;;;;5062442;28;20462;-65
2022/09/25 02:40:35;;;;;;;;;;;;;;;;;;5084651;28;19923;-65
2022/09/25 02:43:00;;;;;;;;;;;;;;;;;;5076535;28;20265;-64
2022/09/25 02:45:25;;;;;;;;;;;;;;;;;;5080822;28;19935;-65
2022/09/25 02:47:51;;;;;;;;;;;;;;;;;;5072048;28;19912;-65
2022/09/25 02:50:16;;;;;;;;;;;;;;;;;;5084774;28;20043;-65
2022/09/25 02:52:41;;;;;;;;;;;;;;;;;;5082764;28;19912;-65
2022/09/25 02:55:06;;;;;;;;;;;;;;;;;;5074474;28;19920;-65
2022/09/25 02:57:31;;;;;;;;;;;;;;;;;;5068576;28;19930;-65
2022/09/25 02:59:56;;;;;;;;;;;;;;;;;;5085960;28;19958;-65
2022/09/25 03:02:21;;;;;;;;;;;;;;;;;;5083141;28;19913;-65
2022/09/25 03:04:47;;;;;;;;;;;;;;;;;;5090296;28;20019;-65
2022/09/25 03:07:12;;;;;;;;;;;;;;;;;;5086306;28;19934;-65
2022/09/25 03:09:37;;;;;;;;;;;;;;;;;;5058527;28;19966;-65
2022/09/25 03:12:03;;;;;;;;;;;;;;;;;;5073519;28;19921;-65
2022/09/25 03:14:29;;;;;;;;;;;;;;;;;;5072413;28;19935;-65
2022/09/25 03:16:55;;;;;;;;;;;;;;;;;;5083863;28;19964;-65
2022/09/25 03:19:20;;;;;;;;;;;;;;;;;;5080067;28;19920;-65
2022/09/25 03:21:45;;;;;;;;;;;;;;;;;;5086291;28;20257;-65
2022/09/25 03:24:10;;;;;;;;;;;;;;;;;;5078089;28;19919;-65
2022/09/25 03:26:35;;;;;;;;;;;;;;;;;;5074300;28;19935;-65
2022/09/25 03:29:01;;;;;;;;;;;;;;;;;;5076227;28;19916;-65
2022/09/25 03:31:26;;;;;;;;;;;;;;;;;;5072994;28;19916;-65
2022/09/25 03:33:51;;;;;;;;;;;;;;;;;;5083804;28;19920;-65
2022/09/25 03:36:17;;;;;;;;;;;;;;;;;;5076422;28;20372;-65
2022/09/25 03:38:42;;;;;;;;;;;;;;;;;;5091374;28;19912;-65
2022/09/25 03:41:08;;;;;;;;;;;;;;;;;;5093249;28;19934;-65
2022/09/25 03:43:35;;;;;;;;;;;;;;;;;;5078555;28;19912;-65
2022/09/25 03:46:00;;;;;;;;;;;;;;;;;;5085057;28;20261;-65
2022/09/25 03:48:25;;;;;;;;;;;;;;;;;;5065692;28;19913;-65
2022/09/25 03:50:50;;;;;;;;;;;;;;;;;;5062637;28;19912;-65
2022/09/25 03:53:17;;;;;;;;;;;;;;;;;;5091855;28;19916;-65
2022/09/25 03:55:42;;;;;;;;;;;;;;;;;;5085339;28;19919;-65
2022/09/25 03:58:07;;;;;;;;;;;;;;;;;;5083194;28;20347;-65
2022/09/25 04:00:32;;;;;;;;;;;;;;;;;;5085784;28;19912;-65
2022/09/25 04:02:58;;;;;;;;;;;;;;;;;;5083663;28;20339;-65
2022/09/25 04:05:23;;;;;;;;;;;;;;;;;;5082473;28;20386;-65
2022/09/25 04:07:48;;;;;;;;;;;;;;;;;;5083293;28;20213;-65
2022/09/25 04:10:13;;;;;;;;;;;;;;;;;;5071045;28;19919;-66
2022/09/25 04:12:40;;;;;;;;;;;;;;;;;;5092751;28;19916;-65
2022/09/25 04:15:05;;;;;;;;;;;;;;;;;;5084370;28;20280;-65
2022/09/25 04:17:30;;;;;;;;;;;;;;;;;;5083459;28;19931;-66
2022/09/25 04:19:55;;;;;;;;;;;;;;;;;;5081474;28;19919;-65
2022/09/25 04:22:21;;;;;;;;;;;;;;;;;;5084022;28;19953;-65
2022/09/25 04:24:49;;;;;;;;;;;;;;;;;;5076643;28;19913;-65
2022/09/25 04:27:14;;;;;;;;;;;;;;;;;;5080551;28;19912;-65
2022/09/25 04:29:40;;;;;;;;;;;;;;;;;;5075808;28;20100;-65
2022/09/25 04:34:49;;;;;;;;;;;;;;;;;;5077357;28;20394;-65
2022/09/25 04:37:14;;;;;;;;;;;;;;;;;;5083608;28;20435;-65
2022/09/25 04:39:40;;;;;;;;;;;;;;;;;;5077852;28;19924;-64
2022/09/25 04:42:05;;;;;;;;;;;;;;;;;;5086858;28;19920;-65
2022/09/25 04:44:30;;;;;;;;;;;;;;;;;;5091274;28;20012;-65
2022/09/25 04:46:56;;;;;;;;;;;;;;;;;;5089897;28;19943;-65
2022/09/25 04:49:21;;;;;;;;;;;;;;;;;;5067585;28;19959;-65
2022/09/25 04:51:46;;;;;;;;;;;;;;;;;;5083223;28;20050;-66
2022/09/25 04:54:13;;;;;;;;;;;;;;;;;;5086436;28;19912;-65
2022/09/25 04:56:38;;;;;;;;;;;;;;;;;;5068025;28;19920;-65
2022/09/25 04:59:03;;;;;;;;;;;;;;;;;;5089689;28;19964;-65
2022/09/25 05:01:28;;;;;;;;;;;;;;;;;;5088271;28;19916;-65
2022/09/25 05:03:53;;;;;;;;;;;;;;;;;;5073306;28;20419;-65
2022/09/25 05:06:18;;;;;;;;;;;;;;;;;;5087868;28;20367;-65
2022/09/25 05:08:43;;;;;;;;;;;;;;;;;;5076443;28;20280;-65
2022/09/25 05:11:10;;;;;;;;;;;;;;;;;;5080695;28;19919;-65
2022/09/25 05:13:35;;;;;;;;;;;;;;;;;;5072896;28;19936;-65
2022/09/25 05:16:00;;;;;;;;;;;;;;;;;;5077965;28;20273;-64
2022/09/25 05:18:25;;;;;;;;;;;;;;;;;;5080070;28;20376;-65
2022/09/25 05:20:52;;;;;;;;;;;;;;;;;;5081621;28;20345;-64
2022/09/25 05:23:17;;;;;;;;;;;;;;;;;;5086685;28;19995;-65
2022/09/25 05:25:42;;;;;;;;;;;;;;;;;;5059586;28;20007;-65
2022/09/25 05:28:07;;;;;;;;;;;;;;;;;;5089662;28;19916;-64
2022/09/25 05:30:32;;;;;;;;;;;;;;;;;;5079006;28;19927;-65
2022/09/25 05:32:58;;;;;;;;;;;;;;;;;;5063810;28;19913;-65
2022/09/25 05:35:23;;;;;;;;;;;;;;;;;;5081395;28;19923;-65
2022/09/25 05:37:48;;;;;;;;;;;;;;;;;;5086618;28;19923;-66
2022/09/25 05:40:16;;;;;;;;;;;;;;;;;;5081665;28;19916;-65
2022/09/25 05:42:43;;;;;;;;;;;;;;;;;;5091436;28;19908;-67
2022/09/25 05:45:08;;;;;;;;;;;;;;;;;;5077982;28;20504;-65
2022/09/25 05:47:33;;;;;;;;;;;;;;;;;;5072581;28;19916;-65
2022/09/25 05:49:58;;;;;;;;;;;;;;;;;;5091425;28;19948;-66
2022/09/25 05:52:23;;;;;;;;;;;;;;;;;;5090018;28;19977;-64
2022/09/25 05:54:48;;;;;;;;;;;;;;;;;;5080709;28;20093;-64
2022/09/25 05:57:13;;;;;;;;;;;;;;;;;;5076698;28;19920;-64
2022/09/25 05:59:39;;;;;;;;;;;;;;;;;;5085244;28;19909;-64
2022/09/25 06:02:04;;;;;;;;;;;;;;;;;;5089552;28;19912;-65
2022/09/25 06:04:29;;;;;;;;;;;;;;;;;;5078556;28;20289;-63
2022/09/25 06:06:54;;;;;;;;;;;;;;;;;;5082196;28;19959;-66
2022/09/25 06:09:20;;;;;;;;;;;;;;;;;;5083959;28;19925;-65
2022/09/25 06:11:46;;;;;;;;;;;;;;;;;;5081885;28;20276;-66
2022/09/25 06:14:12;;;;;;;;;;;;;;;;;;5079228;28;19952;-65
2022/09/25 06:16:37;;;;;;;;;;;;;;;;;;5085480;28;19920;-64
2022/09/25 06:19:02;;;;;;;;;;;;;;;;;;5067886;28;20461;-65
2022/09/25 06:21:27;;;;;;;;;;;;;;;;;;5061175;28;20384;-64
2022/09/25 06:23:53;;;;;;;;;;;;;;;;;;5068097;28;19935;-65
2022/09/25 06:26:18;;;;;;;;;;;;;;;;;;5068449;28;20007;-64
2022/09/25 06:28:43;;;;;;;;;;;;;;;;;;5049956;28;20364;-65
2022/09/25 06:31:08;;;;;;;;;;;;;;;;;;5039605;28;19920;-64
2022/09/25 06:33:34;;;;;;;;;;;;;;;;;;5072155;28;19912;-64
2022/09/25 06:35:59;;;;;;;;;;;;;;;;;;5060947;28;19948;-64
2022/09/25 06:38:24;;;;;;;;;;;;;;;;;;5058689;28;19920;-65
2022/09/25 06:40:49;;;;;;;;;;;;;;;;;;5061412;28;19913;-65
2022/09/25 06:43:15;;;;;;;;;;;;;;;;;;5066245;28;19960;-65
2022/09/25 06:45:40;;;;;;;;;;;;;;;;;;5064033;28;19916;-65
2022/09/25 06:48:07;;;;;;;;;;;;;;;;;;5063637;28;19913;-65
2022/09/25 06:50:32;;;;;;;;;;;;;;;;;;5059459;28;19919;-64
2022/09/25 06:52:58;;;;;;;;;;;;;;;;;;5053004;28;20011;-64
2022/09/25 06:55:23;;;;;;;;;;;;;;;;;;5061677;28;20274;-65
2022/09/25 06:57:48;;;;;;;;;;;;;;;;;;5046029;28;19966;-64
2022/09/25 07:00:13;;;;;;;;;;;;;;;;;;5048371;28;19920;-65
2022/09/25 07:05:22;;;;;;;;;;;;;;;;;;5061356;28;19969;-65
2022/09/25 07:07:47;;;;;;;;;;;;;;;;;;5065816;28;19920;-65
2022/09/25 07:10:13;;;;;;;;;;;;;;;;;;5065977;28;19943;-65
2022/09/25 07:12:40;;;;;;;;;;;;;;;;;;5045658;28;20442;-65
2022/09/25 07:15:05;;;;;;;;;;;;;;;;;;5063027;28;19916;-65
2022/09/25 07:17:30;;;;;;;;;;;;;;;;;;5047589;28;19978;-64
2022/09/25 07:19:57;;;;;;;;;;;;;;;;;;5076630;28;20457;-64
2022/09/25 07:22:22;;;;;;;;;;;;;;;;;;5083940;28;19923;-64
2022/09/25 07:24:48;;;;;;;;;;;;;;;;;;5081295;28;19923;-65
2022/09/25 07:27:13;;;;;;;;;;;;;;;;;;5078457;28;19918;-65
2022/09/25 07:29:38;;;;;;;;;;;;;;;;;;5083938;28;19908;-65
2022/09/25 07:32:03;;;;;;;;;;;;;;;;;;5088451;28;19916;-65
2022/09/25 07:34:28;;;;;;;;;;;;;;;;;;5081770;28;19912;-64
2022/09/25 07:36:54;;;;;;;;;;;;;;;;;;5081498;28;20010;-64
2022/09/25 07:39:19;;;;;;;;;;;;;;;;;;5057736;28;20272;-64
2022/09/25 07:41:44;;;;;;;;;;;;;;;;;;5088775;28;19920;-63
2022/09/25 07:44:09;;;;;;;;;;;;;;;;;;5087958;28;19912;-64
2022/09/25 07:46:34;;;;;;;;;;;;;;;;;;5071215;28;19915;-65
2022/09/25 07:48:59;;;;;;;;;;;;;;;;;;5072368;28;19919;-64
2022/09/25 07:51:25;;;;;;;;;;;;;;;;;;5070976;28;19999;-65
2022/09/25 07:53:50;;;;;;;;;;;;;;;;;;5072885;28;19919;-65
2022/09/25 07:56:16;;;;;;;;;;;;;;;;;;5090760;28;19912;-65
2022/09/25 07:58:41;;;;;;;;;;;;;;;;;;5072954;28;19921;-65
2022/09/25 08:01:06;;;;;;;;;;;;;;;;;;5073369;28;19950;-66
2022/09/25 08:03:32;;;;;;;;;;;;;;;;;;5077382;28;20011;-64
2022/09/25 08:05:57;;;;;;;;;;;;;;;;;;5086936;28;19927;-66
2022/09/25 08:08:22;;;;;;;;;;;;;;;;;;5084386;28;19927;-65
2022/09/25 08:10:47;;;;;;;;;;;;;;;;;;5057685;28;19916;-66
2022/09/25 08:13:12;;;;;;;;;;;;;;;;;;5057490;28;19913;-66
2022/09/25 08:15:37;;;;;;;;;;;;;;;;;;5074854;28;19919;-65
2022/09/25 08:18:02;;;;;;;;;;;;;;;;;;5075901;28;19928;-65
2022/09/25 08:20:28;;;;;;;;;;;;;;;;;;5082936;28;19915;-65
2022/09/25 08:22:53;;;;;;;;;;;;;;;;;;5088417;28;19912;-66
2022/09/25 08:25:19;;;;;;;;;;;;;;;;;;5087043;28;19923;-64
2022/09/25 08:27:44;;;;;;;;;;;;;;;;;;5083881;28;19912;-65
2022/09/25 08:30:09;;;;;;;;;;;;;;;;;;5081421;28;19912;-64
2022/09/25 08:32:35;;;;;;;;;;;;;;;;;;5072664;28;19919;-65
2022/09/25 08:35:01;;;;;;;;;;;;;;;;;;5077348;28;19912;-66
2022/09/25 08:37:26;;;;;;;;;;;;;;;;;;5064420;28;19923;-66
2022/09/25 08:39:51;;;;;;;;;;;;;;;;;;5073934;28;20352;-65
2022/09/25 08:42:16;;;;;;;;;;;;;;;;;;5060303;28;19912;-65
2022/09/25 08:44:41;;;;;;;;;;;;;;;;;;5079890;28;19908;-64
2022/09/25 08:49:51;;;;;;;;;;;;;;;;;;5077840;28;20323;-63
2022/09/25 08:52:16;;;;;;;;;;;;;;;;;;5076517;28;19913;-66
2022/09/25 08:54:41;;;;;;;;;;;;;;;;;;5083617;28;19958;-67
2022/09/25 08:57:06;;;;;;;;;;;;;;;;;;5084456;28;19919;-64
2022/09/25 08:59:31;;;;;;;;;;;;;;;;;;5059925;28;20011;-65
2022/09/25 09:01:56;;;;;;;;;;;;;;;;;;5077885;28;19920;-65
2022/09/25 09:04:21;;;;;;;;;;;;;;;;;;5082265;28;19913;-65
2022/09/25 09:06:47;;;;;;;;;;;;;;;;;;5070327;28;20395;-66
2022/09/25 09:09:12;;;;;;;;;;;;;;;;;;5084664;28;19957;-66
2022/09/25 09:11:37;;;;;;;;;;;;;;;;;;5068631;28;20340;-64
2022/09/25 09:14:02;;;;;;;;;;;;;;;;;;5090224;28;19919;-65
2022/09/25 09:16:27;;;;;;;;;;;;;;;;;;5081083;28;19912;-64
2022/09/25 09:18:53;;;;;;;;;;;;;;;;;;5081162;28;19920;-64
2022/09/25 09:21:19;;;;;;;;;;;;;;;;;;5081229;28;19923;-65
2022/09/25 09:23:44;;;;;;;;;;;;;;;;;;5082309;28;20011;-66
2022/09/25 09:26:09;;;;;;;;;;;;;;;;;;5075288;28;20365;-65
2022/09/25 09:28:34;;;;;;;;;;;;;;;;;;5087971;28;19912;-64
2022/09/25 09:30:59;;;;;;;;;;;;;;;;;;5087388;28;19974;-64
2022/09/25 09:33:25;;;;;;;;;;;;;;;;;;5079162;28;19913;-65
2022/09/25 09:35:50;;;;;;;;;;;;;;;;;;5074513;28;19944;-65
2022/09/25 09:38:15;;;;;;;;;;;;;;;;;;5068915;28;19916;-65
2022/09/25 09:40:40;;;;;;;;;;;;;;;;;;5066960;28;19912;-65
2022/09/25 09:43:05;;;;;;;;;;;;;;;;;;5090346;28;19964;-66
2022/09/25 09:45:32;;;;;;;;;;;;;;;;;;5080248;28;19920;-65
2022/09/25 09:47:57;;;;;;;;;;;;;;;;;;5079513;28;19923;-66
2022/09/25 09:50:22;;;;;;;;;;;;;;;;;;5074612;28;19916;-66
2022/09/25 09:52:47;;;;;;;;;;;;;;;;;;5074472;28;19913;-67
2022/09/25 09:55:12;;;;;;;;;;;;;;;;;;5082432;28;19996;-69
2022/09/25 09:57:37;;;;;;;;;;;;;;;;;;5087641;28;19919;-68
2022/09/25 10:00:04;;;;;;;;;;;;;;;;;;5088682;28;19978;-68
2022/09/25 10:02:29;;;;;;;;;;;;;;;;;;5085581;28;19912;-68
2022/09/25 10:04:54;;;;;;;;;;;;;;;;;;5060849;28;19931;-68
2022/09/25 10:07:21;;;;;;;;;;;;;;;;;;5082150;28;19916;-66
2022/09/25 10:09:46;;;;;;;;;;;;;;;;;;5067754;28;19917;-69
2022/09/25 10:12:11;;;;;;;;;;;;;;;;;;5065877;28;19978;-69
2022/09/25 10:14:37;;;;;;;;;;;;;;;;;;5068088;28;20057;-67
2022/09/25 10:17:02;;;;;;;;;;;;;;;;;;5081455;28;19924;-69
2022/09/25 10:19:27;;;;;;;;;;;;;;;;;;5079441;28;20383;-68
2022/09/25 10:21:52;;;;;;;;;;;;;;;;;;5086000;28;20330;-67
2022/09/25 10:24:17;;;;;;;;;;;;;;;;;;5075352;28;20261;-68
2022/09/25 10:26:43;;;;;;;;;;;;;;;;;;5065779;28;19913;-67
2022/09/25 10:29:08;;;;;;;;;;;;;;;;;;5086387;28;20354;-68
2022/09/25 10:31:33;;;;;;;;;;;;;;;;;;5079834;28;19971;-69
2022/09/25 10:33:58;;;;;;;;;;;;;;;;;;5071771;28;19920;-69
2022/09/25 10:36:23;;;;;;;;;;;;;;;;;;5083451;28;20380;-70
2022/09/25 10:38:49;;;;;;;;;;;;;;;;;;5089949;28;20338;-69
2022/09/25 10:41:14;;;;;;;;;;;;;;;;;;5086983;28;19913;-69
2022/09/25 10:43:39;;;;;;;;;;;;;;;;;;5071858;28;19909;-69
2022/09/25 10:46:04;;;;;;;;;;;;;;;;;;5063453;28;19912;-69
2022/09/25 10:51:17;;;;;;;;;;;;;;;;;;5076275;28;19919;-67
2022/09/25 10:53:42;;;;;;;;;;;;;;;;;;5074459;28;19916;-68
2022/09/25 10:56:08;;;;;;;;;;;;;;;;;;5081447;28;19939;-69
2022/09/25 10:58:33;;;;;;;;;;;;;;;;;;5082392;28;19924;-67
2022/09/25 11:00:58;;;;;;;;;;;;;;;;;;5078526;28;19923;-66
2022/09/25 11:03:23;;;;;;;;;;;;;;;;;;5066836;28;19964;-69
2022/09/25 11:05:48;;;;;;;;;;;;;;;;;;5073278;28;19916;-66
2022/09/25 11:08:15;;;;;;;;;;;;;;;;;;5063177;28;19916;-71
2022/09/25 11:10:41;;;;;;;;;;;;;;;;;;5082004;28;19912;-72
2022/09/25 11:13:06;;;;;;;;;;;;;;;;;;5073829;28;20151;-70
2022/09/25 11:15:31;;;;;;;;;;;;;;;;;;5075799;28;19909;-70
2022/09/25 11:17:57;;;;;;;;;;;;;;;;;;5065436;28;20432;-70
2022/09/25 11:20:31;;;;;;;;;;;;;;;;;;5081705;28;19916;-69
2022/09/25 11:22:56;;;;;;;;;;;;;;;;;;5084847;28;19923;-68
2022/09/25 11:25:22;;;;;;;;;;;;;;;;;;5078391;28;19912;-68
2022/09/25 11:27:47;;;;;;;;;;;;;;;;;;5069437;28;19967;-68
2022/09/25 11:30:15;;;;;;;;;;;;;;;;;;5079060;28;19920;-68
2022/09/25 11:32:40;;;;;;;;;;;;;;;;;;5085286;28;20033;-67
2022/09/25 11:35:05;;;;;;;;;;;;;;;;;;5086424;28;20201;-69
2022/09/25 11:37:30;;;;;;;;;;;;;;;;;;5084340;28;19916;-67
2022/09/25 11:42:39;;;;;;;;;;;;;;;;;;5079248;28;20355;-68
2022/09/25 11:45:07;;;;;;;;;;;;;;;;;;5083022;28;19917;-67
2022/09/25 11:47:32;;;;;;;;;;;;;;;;;;5074085;28;20372;-67
2022/09/25 11:49:57;;;;;;;;;;;;;;;;;;5076856;28;20206;-68
2022/09/25 11:52:23;;;;;;;;;;;;;;;;;;5084553;28;19970;-67
2022/09/25 11:54:48;;;;;;;;;;;;;;;;;;5088592;28;20303;-68
2022/09/25 11:57:13;;;;;;;;;;;;;;;;;;5089319;28;19954;-67
2022/09/25 11:59:38;;;;;;;;;;;;;;;;;;5071901;28;20513;-66
2022/09/25 12:02:03;;;;;;;;;;;;;;;;;;5069121;28;19963;-68
2022/09/25 12:04:29;;;;;;;;;;;;;;;;;;5087390;28;19928;-67
2022/09/25 12:06:54;;;;;;;;;;;;;;;;;;5089710;28;19957;-68
2022/09/25 12:09:19;;;;;;;;;;;;;;;;;;5087522;28;19919;-68
2022/09/25 12:11:44;;;;;;;;;;;;;;;;;;5091348;28;19919;-69
2022/09/25 12:14:09;;;;;;;;;;;;;;;;;;5074902;28;19912;-67
2022/09/25 12:16:34;;;;;;;;;;;;;;;;;;5090532;28;19973;-69
2022/09/25 12:19:00;;;;;;;;;;;;;;;;;;5080534;28;20061;-68
2022/09/25 12:21:25;;;;;;;;;;;;;;;;;;5085383;28;19912;-69
2022/09/25 12:23:50;;;;;;;;;;;;;;;;;;5087197;28;19912;-66
2022/09/25 12:26:15;;;;;;;;;;;;;;;;;;5085189;28;19913;-68
2022/09/25 12:28:40;;;;;;;;;;;;;;;;;;5079716;28;19912;-69
2022/09/25 12:31:05;;;;;;;;;;;;;;;;;;5087728;28;19912;-69
2022/09/25 12:33:31;;;;;;;;;;;;;;;;;;5089465;28;20290;-68
2022/09/25 12:35:56;;;;;;;;;;;;;;;;;;5083928;28;20383;-68
2022/09/25 12:38:22;;;;;;;;;;;;;;;;;;5087251;28;20015;-68
2022/09/25 12:40:47;;;;;;;;;;;;;;;;;;5086747;28;20407;-69
2022/09/25 12:43:13;;;;;;;;;;;;;;;;;;5086397;28;20380;-69
2022/09/25 12:45:38;;;;;;;;;;;;;;;;;;5089180;28;20307;-67
2022/09/25 12:48:03;;;;;;;;;;;;;;;;;;5078850;28;19912;-68
2022/09/25 12:50:29;;;;;;;;;;;;;;;;;;5086696;28;19922;-67
2022/09/25 12:52:55;;;;;;;;;;;;;;;;;;5084319;28;20424;-67
2022/09/25 12:55:20;;;;;;;;;;;;;;;;;;5091356;28;19955;-69
2022/09/25 12:57:46;;;;;;;;;;;;;;;;;;5085984;28;19913;-68
2022/09/25 13:00:11;;;;;;;;;;;;;;;;;;5085942;28;19912;-68
2022/09/25 13:02:36;;;;;;;;;;;;;;;;;;5087126;28;19916;-68
2022/09/25 13:05:01;;;;;;;;;;;;;;;;;;5073306;28;19975;-68
2022/09/25 13:07:26;;;;;;;;;;;;;;;;;;5073252;28;19916;-68
2022/09/25 13:09:52;;;;;;;;;;;;;;;;;;5087903;28;19908;-68
2022/09/25 13:12:17;;;;;;;;;;;;;;;;;;5089008;28;19916;-68
2022/09/25 13:14:42;;;;;;;;;;;;;;;;;;5084233;28;20287;-68
2022/09/25 13:17:07;;;;;;;;;;;;;;;;;;5083011;28;20007;-68
2022/09/25 13:19:33;;;;;;;;;;;;;;;;;;5061794;28;19928;-67
2022/09/25 13:21:58;;;;;;;;;;;;;;;;;;5067179;28;19921;-65
2022/09/25 13:24:23;;;;;;;;;;;;;;;;;;5044486;28;19912;-67
2022/09/25 13:26:49;;;;;;;;;;;;;;;;;;5058952;28;19917;-68
2022/09/25 13:29:15;;;;;;;;;;;;;;;;;;5061340;28;19916;-71
2022/09/25 13:31:41;;;;;;;;;;;;;;;;;;5069154;28;19912;-72
2022/09/25 13:34:07;;;;;;;;;;;;;;;;;;5052854;28;19919;-68
2022/09/25 13:36:32;;;;;;;;;;;;;;;;;;5058761;28;19913;-69
2022/09/25 13:41:41;;;;;;;;;;;;;;;;;;5055602;28;19959;-70
2022/09/25 13:44:06;;;;;;;;;;;;;;;;;;5043370;28;19909;-71
2022/09/25 13:46:32;;;;;;;;;;;;;;;;;;5055012;28;19909;-70
2022/09/25 13:48:57;;;;;;;;;;;;;;;;;;5051647;28;19917;-71
2022/09/25 13:51:22;;;;;;;;;;;;;;;;;;5067821;28;19920;-71
2022/09/25 13:53:48;;;;;;;;;;;;;;;;;;5053670;28;19959;-72
2022/09/25 13:56:13;;;;;;;;;;;;;;;;;;5069264;28;19912;-70
2022/09/25 13:58:38;;;;;;;;;;;;;;;;;;5057257;28;20006;-68
2022/09/25 14:01:03;;;;;;;;;;;;;;;;;;5068506;28;19912;-70
2022/09/25 14:03:30;;;;;;;;;;;;;;;;;;5054826;28;20433;-68
2022/09/25 14:05:56;;;;;;;;;;;;;;;;;;5063037;28;19942;-69
2022/09/25 14:08:21;;;;;;;;;;;;;;;;;;5056811;28;20063;-70
2022/09/25 14:10:46;;;;;;;;;;;;;;;;;;5061764;28;19959;-68
2022/09/25 14:13:11;;;;;;;;;;;;;;;;;;5056329;28;19916;-71
2022/09/25 14:15:37;;;;;;;;;;;;;;;;;;5054686;28;20357;-67
2022/09/25 14:18:03;;;;;;;;;;;;;;;;;;5063725;28;19920;-64
2022/09/25 14:20:28;;;;;;;;;;;;;;;;;;5088041;28;19965;-71
2022/09/25 14:22:54;;;;;;;;;;;;;;;;;;5087026;28;19943;-66
2022/09/25 14:25:19;;;;;;;;;;;;;;;;;;5072733;28;20295;-74
2022/09/25 14:27:45;;;;;;;;;;;;;;;;;;5065881;28;20006;-66
2022/09/25 14:30:10;;;;;;;;;;;;;;;;;;5063727;28;19915;-63
2022/09/25 14:32:35;;;;;;;;;;;;;;;;;;5087052;28;19920;-66
2022/09/25 14:35:00;;;;;;;;;;;;;;;;;;5065567;28;20403;-67
2022/09/25 14:37:26;;;;;;;;;;;;;;;;;;5068877;28;20364;-66
2022/09/25 14:39:51;;;;;;;;;;;;;;;;;;5086116;28;19925;-66
2022/09/25 14:42:17;;;;;;;;;;;;;;;;;;5062210;28;19916;-62
2022/09/25 14:44:43;;;;;;;;;;;;;;;;;;5077407;28;19913;-62
2022/09/25 14:47:08;;;;;;;;;;;;;;;;;;5074747;28;19919;-63
2022/09/25 14:49:36;;;;;;;;;;;;;;;;;;5077308;28;19919;-62
2022/09/25 14:52:01;;;;;;;;;;;;;;;;;;5072325;28;20011;-62
2022/09/25 14:54:26;;;;;;;;;;;;;;;;;;5073713;28;20011;-63
2022/09/25 14:56:52;;;;;;;;;;;;;;;;;;5074574;28;19924;-62
2022/09/25 14:59:17;;;;;;;;;;;;;;;;;;5078347;28;19938;-62
2022/09/25 15:01:42;;;;;;;;;;;;;;;;;;5079483;28;19916;-64
2022/09/25 15:04:07;;;;;;;;;;;;;;;;;;5074765;28;19913;-65
2022/09/25 15:06:33;;;;;;;;;;;;;;;;;;5078059;28;20398;-64
2022/09/25 15:09:01;;;;;;;;;;;;;;;;;;5065948;28;20007;-64
2022/09/25 15:11:28;;;;;;;;;;;;;;;;;;5077582;28;20880;-64
2022/09/25 15:13:54;;;;;;;;;;;;;;;;;;5079533;28;19954;-64
2022/09/25 15:19:03;;;;;;;;;;;;;;;;;;5073978;28;20380;-71
2022/09/25 15:21:28;;;;;;;;;;;;;;;;;;5059009;28;19916;-65
2022/09/25 15:23:53;;;;;;;;;;;;;;;;;;5081924;28;19912;-73
2022/09/25 15:26:19;;;;;;;;;;;;;;;;;;5069605;28;19912;-64
2022/09/25 15:28:44;;;;;;;;;;;;;;;;;;5082675;28;19919;-74
2022/09/25 15:31:09;;;;;;;;;;;;;;;;;;5068653;28;20403;-64
2022/09/25 15:33:35;;;;;;;;;;;;;;;;;;5082435;28;20228;-64
2022/09/25 15:36:02;;;;;;;;;;;;;;;;;;5075120;28;19923;-65
2022/09/25 15:38:27;;;;;;;;;;;;;;;;;;5055391;28;19940;-64
2022/09/25 15:40:52;;;;;;;;;;;;;;;;;;5072421;28;20368;-64
2022/09/25 15:43:17;;;;;;;;;;;;;;;;;;5080884;28;19924;-64
2022/09/25 15:45:42;;;;;;;;;;;;;;;;;;5072922;28;19913;-64
2022/09/25 15:48:07;;;;;;;;;;;;;;;;;;5080430;28;19912;-64
2022/09/25 15:50:33;;;;;;;;;;;;;;;;;;5082025;28;19912;-64
2022/09/25 15:52:59;;;;;;;;;;;;;;;;;;5085258;28;19912;-65
2022/09/25 15:55:24;;;;;;;;;;;;;;;;;;5076237;28;19919;-65
2022/09/25 15:57:49;;;;;;;;;;;;;;;;;;5079597;28;20287;-64
2022/09/25 16:05:42;;;;;;;;;;;;;;;;;;5086902;28;19962;-63
2022/09/25 16:08:07;;;;;;;;;;;;;;;;;;5058271;28;19947;-63
2022/09/25 16:10:33;;;;;;;;;;;;;;;;;;5080941;28;19923;-63
2022/09/25 16:12:58;;;;;;;;;;;;;;;;;;5078874;28;19916;-63
2022/09/25 16:15:26;;;;;;;;;;;;;;;;;;5082293;28;19923;-64
2022/09/25 16:17:52;;;;;;;;;;;;;;;;;;5074536;28;19924;-65
2022/09/25 16:20:17;;;;;;;;;;;;;;;;;;5084461;28;19968;-64
2022/09/25 16:22:43;;;;;;;;;;;;;;;;;;5067883;28;20188;-63
2022/09/25 16:25:08;;;;;;;;;;;;;;;;;;5079912;28;19927;-63
2022/09/25 16:27:33;;;;;;;;;;;;;;;;;;5080522;28;19925;-63
2022/09/25 16:29:58;;;;;;;;;;;;;;;;;;5082621;28;19916;-64
2022/09/25 16:32:23;;;;;;;;;;;;;;;;;;5086949;28;20028;-65
2022/09/25 16:34:48;;;;;;;;;;;;;;;;;;5078789;28;20280;-62
2022/09/25 16:37:14;;;;;;;;;;;;;;;;;;5075227;28;19917;-63
2022/09/25 16:39:39;;;;;;;;;;;;;;;;;;5067926;28;19920;-63
2022/09/25 16:42:04;;;;;;;;;;;;;;;;;;5085222;28;19920;-64
2022/09/25 16:44:29;;;;;;;;;;;;;;;;;;5073289;28;19915;-64
2022/09/25 16:46:54;;;;;;;;;;;;;;;;;;5063891;28;19923;-64
2022/09/25 16:49:19;;;;;;;;;;;;;;;;;;5076535;28;20029;-64
2022/09/25 16:51:45;;;;;;;;;;;;;;;;;;5091186;28;20283;-64
2022/09/25 16:54:10;;;;;;;;;;;;;;;;;;5074027;28;19912;-64
2022/09/25 16:56:35;;;;;;;;;;;;;;;;;;5082603;28;20434;-64
2022/09/25 16:59:00;;;;;;;;;;;;;;;;;;5083882;28;19912;-63